createdAt,value
2023-05-12T00:02:13.132Z,8.07
2023-05-12T00:04:40.616Z,7.38
2023-05-12T00:07:07.452Z,7.40
2023-05-12T00:09:34.022Z,7.97
2023-05-12T00:12:01.484Z,8.63
2023-05-12T00:14:28.222Z,7.80
2023-05-12T00:16:54.794Z,8.07
2023-05-12T00:19:21.394Z,7.73
2023-05-12T00:21:48.104Z,8.40
2023-05-12T00:24:14.686Z,8.32
2023-05-12T00:26:41.470Z,9.07
2023-05-12T00:29:08.384Z,7.93
2023-05-12T00:31:35.009Z,8.20
2023-05-12T00:34:01.523Z,8.60
2023-05-12T00:36:28.115Z,8.82
2023-05-12T00:38:54.681Z,8.98
2023-05-12T00:41:21.214Z,8.70
2023-05-12T00:43:47.768Z,10.20
2023-05-12T00:46:14.463Z,9.70
2023-05-12T00:48:41.106Z,9.43
2023-05-12T00:51:08.728Z,9.57
2023-05-12T00:53:48.359Z,9.85
2023-05-12T00:56:20.386Z,9.47
2023-05-12T00:58:47.557Z,10.48
2023-05-12T01:01:14.140Z,10.90
2023-05-12T01:03:40.943Z,10.50
2023-05-12T01:06:16.648Z,10.52
2023-05-12T01:08:44.000Z,12.03
2023-05-12T01:11:10.555Z,11.25
2023-05-12T01:13:39.476Z,11.57
2023-05-12T01:16:09.539Z,11.82
2023-05-12T01:18:38.633Z,10.65
2023-05-12T01:21:06.019Z,11.47
2023-05-12T01:23:37.798Z,11.13
2023-05-12T01:26:09.363Z,10.85
2023-05-12T01:28:37.124Z,11.30
2023-05-12T01:31:05.961Z,12.38
2023-05-12T01:33:34.068Z,12.47
2023-05-12T01:36:00.748Z,11.00
2023-05-12T01:38:27.684Z,8.68
2023-05-12T01:40:54.209Z,5.22
2023-05-12T01:43:22.181Z,4.28
2023-05-12T01:45:48.978Z,4.50
2023-05-12T01:48:15.676Z,4.20
2023-05-12T01:50:42.569Z,4.13
2023-05-12T01:53:12.455Z,4.93
2023-05-12T01:55:39.103Z,4.90
2023-05-12T01:58:05.814Z,4.57
2023-05-12T02:00:32.362Z,4.75
2023-05-12T02:02:58.983Z,5.13
2023-05-12T02:05:26.066Z,5.45
2023-05-12T02:07:52.601Z,6.05
2023-05-12T02:10:19.360Z,6.47
2023-05-12T02:12:46.250Z,6.00
2023-05-12T02:15:12.923Z,6.57
2023-05-12T02:17:39.493Z,7.53
2023-05-12T02:20:06.883Z,8.00
2023-05-12T02:22:33.410Z,8.50
2023-05-12T02:25:00.188Z,8.55
2023-05-12T02:27:26.716Z,8.70
2023-05-12T02:29:54.058Z,8.25
2023-05-12T02:32:21.673Z,8.35
2023-05-12T02:34:48.262Z,7.77
2023-05-12T02:37:14.747Z,8.18
2023-05-12T02:39:41.434Z,6.85
2023-05-12T02:42:07.972Z,7.75
2023-05-12T02:44:34.444Z,6.90
2023-05-12T02:47:01.153Z,7.70
2023-05-12T02:49:27.726Z,5.82
2023-05-12T02:51:55.320Z,5.68
2023-05-12T02:54:21.803Z,4.28
2023-05-12T02:56:48.509Z,4.35
2023-05-12T02:59:15.004Z,4.17
2023-05-12T03:01:41.515Z,3.78
2023-05-12T03:04:08.164Z,3.75
2023-05-12T03:06:34.668Z,4.38
2023-05-12T03:09:01.393Z,3.47
2023-05-12T03:11:27.948Z,3.50
2023-05-12T03:13:54.464Z,3.88
2023-05-12T03:16:21.073Z,3.80
2023-05-12T03:18:47.725Z,4.30
2023-05-12T03:21:14.263Z,4.25
2023-05-12T03:23:40.808Z,4.77
2023-05-12T03:26:07.558Z,5.00
2023-05-12T03:28:34.085Z,5.50
2023-05-12T03:31:00.635Z,6.00
2023-05-12T03:33:27.216Z,6.90
2023-05-12T03:35:54.097Z,6.70
2023-05-12T03:38:20.571Z,6.63
2023-05-12T03:40:52.826Z,6.20
2023-05-12T03:43:19.795Z,6.80
2023-05-12T03:45:46.559Z,6.68
2023-05-12T03:48:13.311Z,6.07
2023-05-12T03:50:40.053Z,6.25
2023-05-12T03:53:06.536Z,5.85
2023-05-12T03:55:33.283Z,5.50
2023-05-12T03:57:59.803Z,5.03
2023-05-12T04:00:26.451Z,6.30
2023-05-12T04:02:53.522Z,6.00
2023-05-12T04:05:20.772Z,5.90
2023-05-12T04:07:47.280Z,5.03
2023-05-12T04:10:13.952Z,4.60
2023-05-12T04:12:40.540Z,5.10
2023-05-12T04:15:08.128Z,4.95
2023-05-12T04:17:35.023Z,5.50
2023-05-12T04:20:01.584Z,4.40
2023-05-12T04:22:28.120Z,4.78
2023-05-12T04:24:54.830Z,4.43
2023-05-12T04:27:21.367Z,4.60
2023-05-12T04:29:47.910Z,3.65
2023-05-12T04:32:14.546Z,4.45
2023-05-12T04:34:41.913Z,3.63
2023-05-12T04:37:08.474Z,4.87
2023-05-12T04:39:35.025Z,4.35
2023-05-12T04:42:02.161Z,4.13
2023-05-12T04:44:28.820Z,4.00
2023-05-12T04:46:56.508Z,3.38
2023-05-12T04:49:23.096Z,3.70
2023-05-12T04:51:50.834Z,3.90
2023-05-12T04:54:17.601Z,4.65
2023-05-12T04:56:44.128Z,4.53
2023-05-12T04:59:11.639Z,4.72
2023-05-12T05:01:39.427Z,5.03
2023-05-12T05:04:06.070Z,5.25
2023-05-12T05:06:32.592Z,4.80
2023-05-12T05:08:59.167Z,4.47
2023-05-12T05:11:25.926Z,4.82
2023-05-12T05:13:52.529Z,4.37
2023-05-12T05:16:19.137Z,5.22
2023-05-12T05:18:46.738Z,5.07
2023-05-12T05:21:16.529Z,4.78
2023-05-12T05:23:43.510Z,4.82
2023-05-12T05:26:10.263Z,4.83
2023-05-12T05:28:39.690Z,5.78
2023-05-12T05:31:06.641Z,5.28
2023-05-12T05:33:33.196Z,4.75
2023-05-12T05:36:00.526Z,4.88
2023-05-12T05:38:27.019Z,4.07
2023-05-12T05:40:54.686Z,4.38
2023-05-12T05:43:21.545Z,4.55
2023-05-12T05:45:49.951Z,4.20
2023-05-12T05:48:16.647Z,3.25
2023-05-12T05:50:43.320Z,3.60
2023-05-12T05:53:09.914Z,2.83
2023-05-12T05:55:36.471Z,2.53
2023-05-12T05:58:03.010Z,2.95
2023-05-12T06:00:30.056Z,2.50
2023-05-12T06:02:56.822Z,2.50
2023-05-12T06:05:23.556Z,3.10
2023-05-12T06:07:50.085Z,3.05
2023-05-12T06:10:16.668Z,3.13
2023-05-12T06:12:43.374Z,3.65
2023-05-12T06:15:11.020Z,2.67
2023-05-12T06:17:38.337Z,3.05
2023-05-12T06:20:06.592Z,3.08
2023-05-12T06:22:34.708Z,3.35
2023-05-12T06:25:02.093Z,2.65
2023-05-12T06:27:28.644Z,3.60
2023-05-12T06:29:55.219Z,3.25
2023-05-12T06:32:21.917Z,3.90
2023-05-12T06:34:48.485Z,4.60
2023-05-12T06:37:15.083Z,3.63
2023-05-12T06:39:41.780Z,4.50
2023-05-12T06:42:08.590Z,4.63
2023-05-12T06:44:35.140Z,5.03
2023-05-12T06:47:01.695Z,5.07
2023-05-12T06:49:28.399Z,4.97
2023-05-12T06:51:54.995Z,4.67
2023-05-12T06:54:21.533Z,5.28
2023-05-12T06:56:48.250Z,5.70
2023-05-12T06:59:15.348Z,6.25
2023-05-12T07:01:43.171Z,6.68
2023-05-12T07:04:10.251Z,7.60
2023-05-12T07:06:37.322Z,6.70
2023-05-12T07:09:04.190Z,7.75
2023-05-12T07:11:30.765Z,8.23
2023-05-12T07:13:57.309Z,8.73
2023-05-12T07:16:23.960Z,9.83
2023-05-12T07:18:51.190Z,9.50
2023-05-12T07:21:17.811Z,10.68
2023-05-12T07:23:44.625Z,10.40
2023-05-12T07:26:11.183Z,9.98
2023-05-12T07:28:38.294Z,11.50
2023-05-12T07:31:09.567Z,10.05
2023-05-12T07:33:36.512Z,10.25
2023-05-12T07:36:04.753Z,11.52
2023-05-12T07:38:32.176Z,12.02
2023-05-12T07:40:59.668Z,12.30
2023-05-12T07:43:26.474Z,12.27
2023-05-12T07:45:53.055Z,13.00
2023-05-12T07:48:19.588Z,12.18
2023-05-12T07:50:46.095Z,13.02
2023-05-12T07:53:12.605Z,13.67
2023-05-12T07:55:39.201Z,14.90
2023-05-12T07:58:05.695Z,14.60
2023-05-12T08:00:32.218Z,13.43
2023-05-12T08:02:58.962Z,13.98
2023-05-12T08:05:25.763Z,14.53
2023-05-12T08:07:52.506Z,14.77
2023-05-12T08:10:22.102Z,14.52
2023-05-12T08:12:48.649Z,15.82
2023-05-12T08:15:15.308Z,14.63
2023-05-12T08:17:42.200Z,15.67
2023-05-12T08:20:09.209Z,14.50
2023-05-12T08:22:35.737Z,14.68
2023-05-12T08:25:02.592Z,14.00
2023-05-12T08:27:29.821Z,14.27
2023-05-12T08:29:56.387Z,14.67
2023-05-12T08:32:23.078Z,14.73
2023-05-12T08:34:49.736Z,14.70
2023-05-12T08:37:16.501Z,14.55
2023-05-12T08:39:43.163Z,12.80
2023-05-12T08:42:18.762Z,12.53
2023-05-12T08:44:46.523Z,12.40
2023-05-12T08:47:15.632Z,13.10
2023-05-12T08:49:44.199Z,10.38
2023-05-12T08:52:12.411Z,10.18
2023-05-12T08:54:52.420Z,9.47
2023-05-12T08:57:23.215Z,10.55
2023-05-12T08:59:51.924Z,8.82
2023-05-12T09:02:21.077Z,10.95
2023-05-12T09:04:48.587Z,10.68
2023-05-12T09:07:16.081Z,8.53
2023-05-12T09:09:45.710Z,9.73
2023-05-12T09:12:16.792Z,10.02
2023-05-12T09:14:51.748Z,9.65
2023-05-12T09:17:18.780Z,8.40
2023-05-12T09:19:45.534Z,9.70
2023-05-12T09:22:14.912Z,9.77
2023-05-12T09:24:41.682Z,8.65
2023-05-12T09:27:09.822Z,10.18
2023-05-12T09:29:42.436Z,9.18
2023-05-12T09:32:14.710Z,9.80
2023-05-12T09:34:43.167Z,10.13
2023-05-12T09:37:09.917Z,11.15
2023-05-12T09:39:36.992Z,9.07
2023-05-12T09:42:03.838Z,10.00
2023-05-12T09:44:32.303Z,9.80
2023-05-12T09:47:10.346Z,9.02
2023-05-12T09:49:37.186Z,9.25
2023-05-12T09:52:05.041Z,8.70
2023-05-12T09:54:32.585Z,9.85
2023-05-12T09:57:01.634Z,8.77
2023-05-12T09:59:33.735Z,9.85
2023-05-12T10:02:02.515Z,9.82
2023-05-12T10:04:32.686Z,10.27
2023-05-12T10:06:59.538Z,8.80
2023-05-12T10:09:31.527Z,10.17
2023-05-12T10:11:58.216Z,8.85
2023-05-12T10:14:25.711Z,8.23
2023-05-12T10:16:52.829Z,8.93
2023-05-12T10:19:21.107Z,8.93
2023-05-12T10:21:48.989Z,8.87
2023-05-12T10:24:18.861Z,9.07
2023-05-12T10:26:45.707Z,10.30
2023-05-12T10:29:13.628Z,8.48
2023-05-12T10:31:40.590Z,10.27
2023-05-12T10:34:07.445Z,9.87
2023-05-12T10:36:46.512Z,9.75
2023-05-12T10:39:15.576Z,9.45
2023-05-12T10:41:42.953Z,9.20
2023-05-12T10:44:12.393Z,9.13
2023-05-12T10:46:40.661Z,7.97
2023-05-12T10:49:10.506Z,7.22
2023-05-12T10:51:43.182Z,6.43
2023-05-12T10:54:13.552Z,7.75
2023-05-12T10:56:40.287Z,7.18
2023-05-12T10:59:24.307Z,6.27
2023-05-12T11:02:06.743Z,5.63
2023-05-12T11:04:56.322Z,5.43
2023-05-12T11:07:27.147Z,6.93
2023-05-12T11:09:59.202Z,7.32
2023-05-12T11:12:31.816Z,7.07
2023-05-12T11:15:01.578Z,6.40
2023-05-12T11:17:28.668Z,8.35
2023-05-12T11:19:55.770Z,6.90
2023-05-12T11:22:23.416Z,6.40
2023-05-12T11:24:50.836Z,6.07
2023-05-12T11:27:19.863Z,6.57
2023-05-12T11:29:59.672Z,6.65
2023-05-12T11:32:27.259Z,6.00
2023-05-12T11:34:53.893Z,6.80
2023-05-12T11:37:21.363Z,5.17
2023-05-12T11:39:48.642Z,4.97
2023-05-12T11:42:17.734Z,5.60
2023-05-12T11:44:49.909Z,5.68
2023-05-12T11:47:19.128Z,5.95
2023-05-12T11:49:55.551Z,5.50
2023-05-12T11:52:23.941Z,5.85
2023-05-12T11:54:58.099Z,5.20
2023-05-12T11:57:29.675Z,5.30
2023-05-12T12:00:15.787Z,4.50
2023-05-12T12:02:43.498Z,4.00
2023-05-12T12:05:18.278Z,3.85
2023-05-12T12:07:45.355Z,3.75
2023-05-12T12:10:16.874Z,4.38
2023-05-12T12:12:44.293Z,4.43
2023-05-12T12:15:11.582Z,4.13
2023-05-12T12:17:39.827Z,4.22
2023-05-12T12:20:08.024Z,3.67
2023-05-12T12:22:35.354Z,3.65
2023-05-12T12:25:03.116Z,3.10
2023-05-12T12:27:30.048Z,2.93
2023-05-12T12:29:56.755Z,4.10
2023-05-12T12:32:23.572Z,3.65
2023-05-12T12:34:50.327Z,3.70
2023-05-12T12:37:17.229Z,3.92
2023-05-12T12:39:43.809Z,3.30
2023-05-12T12:42:10.292Z,3.42
2023-05-12T12:44:36.960Z,3.72
2023-05-12T12:47:04.324Z,4.68
2023-05-12T12:49:30.929Z,3.78
2023-05-12T12:51:57.827Z,3.97
2023-05-12T12:54:27.366Z,4.13
2023-05-12T12:56:55.503Z,4.00
2023-05-12T12:59:22.475Z,4.10
2023-05-12T13:01:49.215Z,3.90
2023-05-12T13:04:16.560Z,3.30
2023-05-12T13:06:43.156Z,2.97
2023-05-12T13:09:10.790Z,3.30
2023-05-12T13:11:37.468Z,3.25
2023-05-12T13:14:05.077Z,3.35
2023-05-12T13:16:31.852Z,4.00
2023-05-12T13:18:58.991Z,3.40
2023-05-12T13:21:25.577Z,4.15
2023-05-12T13:23:52.113Z,3.85
2023-05-12T13:26:18.707Z,4.00
2023-05-12T13:28:45.375Z,3.70
2023-05-12T13:31:12.254Z,3.63
2023-05-12T13:33:39.332Z,3.58
2023-05-12T13:36:06.255Z,3.63
2023-05-12T13:38:33.871Z,3.58
2023-05-12T13:41:00.462Z,3.60
2023-05-12T13:43:26.974Z,3.67
2023-05-12T13:45:53.545Z,3.28
2023-05-12T13:48:20.808Z,3.65
2023-05-12T13:50:48.001Z,3.47
2023-05-12T13:53:14.489Z,3.13
2023-05-12T13:55:41.409Z,3.95
2023-05-12T13:58:10.004Z,3.40
2023-05-12T14:00:36.738Z,3.55
2023-05-12T14:03:03.326Z,3.80
2023-05-12T14:05:29.899Z,3.70
2023-05-12T14:07:56.968Z,3.53
2023-05-12T14:10:23.879Z,3.17
2023-05-12T14:12:50.522Z,3.30
2023-05-12T14:15:29.151Z,3.22
2023-05-12T14:18:00.806Z,3.17
2023-05-12T14:20:27.367Z,3.70
2023-05-12T14:22:54.029Z,3.50
2023-05-12T14:25:20.758Z,3.20
2023-05-12T14:27:47.545Z,3.70
2023-05-12T14:30:14.688Z,3.77
2023-05-12T14:32:41.278Z,4.50
2023-05-12T14:35:09.772Z,4.20
2023-05-12T14:37:37.400Z,4.05
2023-05-12T14:40:04.854Z,3.67
2023-05-12T14:42:32.414Z,3.40
2023-05-12T14:44:59.358Z,3.17
2023-05-12T14:47:26.078Z,3.10
2023-05-12T14:49:52.706Z,3.00
2023-05-12T14:52:19.214Z,3.53
2023-05-12T14:54:45.868Z,3.13
2023-05-12T14:57:13.650Z,2.92
2023-05-12T14:59:40.280Z,4.20
2023-05-12T15:02:08.054Z,3.90
2023-05-12T15:04:34.754Z,3.55
2023-05-12T15:07:01.753Z,3.63
2023-05-12T15:09:28.218Z,3.22
2023-05-12T15:11:55.158Z,3.45
2023-05-12T15:14:21.752Z,3.17
2023-05-12T15:16:48.460Z,3.70
2023-05-12T15:19:15.294Z,2.90
2023-05-12T15:21:42.116Z,2.78
2023-05-12T15:24:08.644Z,3.00
2023-05-12T15:26:38.235Z,3.10
2023-05-12T15:29:06.378Z,3.15
2023-05-12T15:31:33.033Z,2.90
2023-05-12T15:33:59.770Z,3.08
2023-05-12T15:36:26.362Z,3.47
2023-05-12T15:38:52.901Z,3.25
2023-05-12T15:41:19.381Z,3.30
2023-05-12T15:43:45.851Z,3.67
2023-05-12T15:46:12.380Z,3.42
2023-05-12T15:48:39.545Z,2.97
2023-05-12T15:51:06.632Z,3.55
2023-05-12T15:53:33.436Z,2.67
2023-05-12T15:56:01.859Z,3.00
2023-05-12T15:58:29.043Z,3.15
2023-05-12T16:00:55.818Z,3.15
2023-05-12T16:03:23.653Z,3.15
2023-05-12T16:05:51.358Z,3.25
2023-05-12T16:08:18.357Z,3.03
2023-05-12T16:10:45.109Z,3.35
2023-05-12T16:13:11.698Z,3.63
2023-05-12T16:15:38.272Z,3.55
2023-05-12T16:18:06.984Z,3.75
2023-05-12T16:20:35.350Z,3.57
2023-05-12T16:23:02.545Z,4.10
2023-05-12T16:25:29.253Z,3.25
2023-05-12T16:27:56.107Z,2.90
2023-05-12T16:30:22.715Z,3.55
2023-05-12T16:32:49.413Z,2.60
2023-05-12T16:35:16.505Z,3.15
2023-05-12T16:37:43.027Z,3.40
2023-05-12T16:40:09.864Z,3.20
2023-05-12T16:42:37.356Z,2.88
2023-05-12T16:45:04.152Z,3.27
2023-05-12T16:47:30.682Z,2.92
2023-05-12T16:49:59.341Z,2.88
2023-05-12T16:52:26.723Z,3.08
2023-05-12T16:54:53.344Z,2.75
2023-05-12T16:57:20.465Z,2.90
2023-05-12T16:59:48.513Z,3.33
2023-05-12T17:02:15.532Z,3.30
2023-05-12T17:04:42.394Z,3.55
2023-05-12T17:07:09.624Z,2.97
2023-05-12T17:09:36.480Z,2.83
2023-05-12T17:12:04.707Z,3.08
2023-05-12T17:14:31.485Z,3.30
2023-05-12T17:16:58.362Z,4.00
2023-05-12T17:19:24.924Z,5.13
2023-05-12T17:21:51.506Z,5.13
2023-05-12T17:24:18.193Z,7.30
2023-05-12T17:26:45.180Z,7.05
2023-05-12T17:29:11.845Z,8.10
2023-05-12T17:31:38.838Z,8.55
2023-05-12T17:34:05.610Z,9.50
2023-05-12T17:36:32.112Z,9.57
2023-05-12T17:38:58.795Z,10.25
2023-05-12T17:41:27.635Z,9.65
2023-05-12T17:43:55.653Z,10.02
2023-05-12T17:46:23.185Z,9.93
2023-05-12T17:48:50.007Z,10.63
2023-05-12T17:51:17.042Z,10.80
2023-05-12T17:53:43.858Z,11.75
2023-05-12T17:56:10.540Z,11.38
2023-05-12T17:58:37.152Z,11.10
2023-05-12T18:01:04.044Z,10.82
2023-05-12T18:03:30.711Z,10.55
2023-05-12T18:05:57.323Z,11.25
2023-05-12T18:08:23.867Z,12.00
2023-05-12T18:10:50.674Z,12.00
2023-05-12T18:13:17.335Z,11.95
2023-05-12T18:15:43.908Z,12.75
2023-05-12T18:18:10.846Z,12.30
2023-05-12T18:20:37.960Z,12.77
2023-05-12T18:23:04.635Z,11.90
2023-05-12T18:25:31.305Z,12.48
2023-05-12T18:27:58.240Z,12.00
2023-05-12T18:30:24.806Z,11.90
2023-05-12T18:32:51.389Z,12.43
2023-05-12T18:35:18.088Z,3.50
2023-05-12T18:37:44.989Z,2.03
2023-05-12T18:40:12.136Z,2.67
2023-05-12T18:42:39.017Z,1.92
2023-05-12T18:45:06.638Z,2.80
2023-05-12T18:47:33.635Z,2.40
2023-05-12T18:50:00.392Z,2.63
2023-05-12T18:52:27.116Z,2.38
2023-05-12T18:54:53.710Z,2.83
2023-05-12T18:57:20.374Z,2.83
2023-05-12T18:59:47.009Z,2.90
2023-05-12T19:02:13.493Z,2.30
2023-05-12T19:04:40.079Z,2.50
2023-05-12T19:07:10.028Z,2.55
2023-05-12T19:09:37.294Z,2.85
2023-05-12T19:12:05.983Z,3.37
2023-05-12T19:14:32.934Z,4.30
2023-05-12T19:16:59.509Z,4.78
2023-05-12T19:19:26.222Z,4.97
2023-05-12T19:21:53.121Z,4.78
2023-05-12T19:24:19.689Z,4.83
2023-05-12T19:26:46.291Z,4.97
2023-05-12T19:29:12.821Z,5.85
2023-05-12T19:31:39.520Z,5.78
2023-05-12T19:34:07.144Z,6.22
2023-05-12T19:36:34.147Z,6.40
2023-05-12T19:39:01.160Z,5.93
2023-05-12T19:41:29.732Z,7.65
2023-05-12T19:43:56.619Z,6.25
2023-05-12T19:46:23.532Z,6.57
2023-05-12T19:48:51.778Z,6.57
2023-05-12T19:51:18.663Z,6.55
2023-05-12T19:53:45.316Z,7.25
2023-05-12T19:56:11.809Z,6.68
2023-05-12T19:58:38.441Z,7.05
2023-05-12T20:01:05.185Z,7.07
2023-05-12T20:03:32.124Z,7.15
2023-05-12T20:05:58.963Z,7.70
2023-05-12T20:08:25.527Z,8.07
2023-05-12T20:10:52.192Z,7.38
2023-05-12T20:13:18.727Z,6.40
2023-05-12T20:15:45.331Z,7.32
2023-05-12T20:18:14.582Z,7.25
2023-05-12T20:20:42.528Z,8.13
2023-05-12T20:23:09.625Z,7.13
2023-05-12T20:25:36.911Z,7.13
2023-05-12T20:28:03.835Z,7.20
2023-05-12T20:30:30.460Z,8.13
2023-05-12T20:32:57.025Z,8.32
2023-05-12T20:35:23.964Z,7.88
2023-05-12T20:37:50.648Z,8.53
2023-05-12T20:40:17.346Z,8.13
2023-05-12T20:42:46.153Z,8.32
2023-05-12T20:45:13.771Z,8.20
2023-05-12T20:47:40.597Z,6.88
2023-05-12T20:50:08.250Z,7.50
2023-05-12T20:52:39.070Z,8.00
2023-05-12T20:55:06.975Z,7.35
2023-05-12T20:57:33.539Z,8.25
2023-05-12T21:00:00.199Z,8.10
2023-05-12T21:02:28.091Z,7.93
2023-05-12T21:04:55.205Z,7.65
2023-05-12T21:07:21.935Z,8.40
2023-05-12T21:09:48.554Z,8.48
2023-05-12T21:12:15.215Z,8.32
2023-05-12T21:14:43.452Z,8.70
2023-05-12T21:17:10.746Z,9.25
2023-05-12T21:19:38.686Z,9.35
2023-05-12T21:22:06.764Z,8.95
2023-05-12T21:24:33.713Z,8.32
2023-05-12T21:27:04.849Z,9.03
2023-05-12T21:29:32.790Z,9.45
2023-05-12T21:32:00.164Z,9.75
2023-05-12T21:34:27.095Z,9.57
2023-05-12T21:36:54.676Z,12.00
2023-05-12T21:39:22.023Z,13.40
2023-05-12T21:41:48.794Z,14.68
2023-05-12T21:44:15.382Z,17.20
2023-05-12T21:46:42.727Z,18.08
2023-05-12T21:49:09.398Z,20.33
2023-05-12T21:51:36.124Z,22.03
2023-05-12T21:54:02.722Z,22.02
2023-05-12T21:56:29.373Z,22.92
2023-05-12T21:58:55.951Z,22.45
2023-05-12T22:01:22.792Z,23.38
2023-05-12T22:03:49.923Z,22.27
2023-05-12T22:06:16.892Z,22.05
2023-05-12T22:08:43.620Z,23.67
2023-05-12T22:11:11.375Z,24.02
2023-05-12T22:13:38.055Z,23.88
2023-05-12T22:16:04.900Z,22.57
2023-05-12T22:18:31.986Z,23.48
2023-05-12T22:20:59.066Z,24.20
2023-05-12T22:23:25.663Z,22.67
2023-05-12T22:25:52.359Z,24.33
2023-05-12T22:28:18.953Z,22.17
2023-05-12T22:30:45.553Z,23.20
2023-05-12T22:33:12.151Z,24.05
2023-05-12T22:35:38.685Z,24.92
2023-05-12T22:38:05.784Z,24.95
2023-05-12T22:40:33.719Z,26.07
2023-05-12T22:43:00.228Z,25.00
2023-05-12T22:45:26.828Z,27.67
2023-05-12T22:47:53.602Z,26.13
2023-05-12T22:50:20.801Z,25.95
2023-05-12T22:52:47.560Z,25.90
2023-05-12T22:55:14.210Z,24.42
2023-05-12T22:57:43.565Z,26.40
2023-05-12T23:00:10.470Z,24.10
2023-05-12T23:02:37.057Z,25.02
2023-05-12T23:05:04.229Z,23.75
2023-05-12T23:07:31.141Z,23.58
2023-05-12T23:09:57.651Z,24.50
2023-05-12T23:12:24.187Z,23.90
2023-05-12T23:14:50.741Z,24.50
2023-05-12T23:17:17.251Z,25.23
2023-05-12T23:19:43.734Z,23.23
2023-05-12T23:22:10.242Z,23.57
2023-05-12T23:24:36.733Z,23.65
2023-05-12T23:27:03.676Z,25.42
2023-05-12T23:29:30.476Z,22.35
2023-05-12T23:31:58.779Z,22.50
2023-05-12T23:34:25.775Z,22.00
2023-05-12T23:36:52.450Z,22.00
2023-05-12T23:39:19.001Z,22.38
2023-05-12T23:41:45.683Z,22.80
2023-05-12T23:44:13.004Z,21.15
2023-05-12T23:46:39.676Z,21.50
2023-05-12T23:49:06.437Z,22.40
2023-05-12T23:51:33.147Z,22.30
2023-05-12T23:53:59.709Z,21.50
2023-05-12T23:56:26.377Z,21.38
2023-05-12T23:58:52.880Z,21.40
